createdAt,value
2022-12-25T00:00:32.349Z,10.40
2022-12-25T00:03:18.833Z,11.00
2022-12-25T00:05:45.491Z,10.40
2022-12-25T00:08:12.195Z,10.10
2022-12-25T00:10:44.670Z,10.00
2022-12-25T00:13:11.649Z,11.00
2022-12-25T00:15:41.239Z,9.20
2022-12-25T00:18:07.899Z,9.90
2022-12-25T00:20:35.218Z,9.00
2022-12-25T00:23:01.895Z,10.10
2022-12-25T00:25:28.457Z,9.10
2022-12-25T00:27:54.829Z,10.20
2022-12-25T00:30:21.365Z,8.70
2022-12-25T00:32:48.148Z,7.50
2022-12-25T00:35:14.897Z,9.80
2022-12-25T00:37:41.375Z,7.60
2022-12-25T00:40:08.842Z,7.30
2022-12-25T00:42:35.396Z,9.30
2022-12-25T00:45:02.050Z,8.30
2022-12-25T00:47:28.843Z,8.00
2022-12-25T00:49:55.540Z,7.80
2022-12-25T00:52:22.217Z,7.10
2022-12-25T00:54:48.669Z,8.40
2022-12-25T00:57:15.168Z,7.50
2022-12-25T00:59:41.565Z,6.90
2022-12-25T01:02:26.324Z,8.30
2022-12-25T01:04:55.131Z,7.10
2022-12-25T01:07:24.060Z,7.20
2022-12-25T01:10:09.300Z,8.10
2022-12-25T01:12:39.884Z,7.60
2022-12-25T01:15:07.394Z,7.40
2022-12-25T01:17:34.087Z,7.00
2022-12-25T01:20:00.607Z,6.50
2022-12-25T01:22:27.034Z,7.80
2022-12-25T01:24:53.489Z,7.80
2022-12-25T01:27:20.180Z,7.80
2022-12-25T01:29:46.849Z,7.40
2022-12-25T01:32:13.449Z,7.30
2022-12-25T01:34:40.149Z,8.20
2022-12-25T01:37:06.822Z,7.60
2022-12-25T01:39:33.629Z,7.10
2022-12-25T01:42:00.093Z,7.90
2022-12-25T01:44:35.891Z,7.60
2022-12-25T01:47:03.790Z,7.60
2022-12-25T01:49:30.369Z,7.90
2022-12-25T01:52:05.319Z,7.40
2022-12-25T01:54:35.679Z,7.90
2022-12-25T01:57:04.733Z,7.00
2022-12-25T01:59:31.136Z,7.10
2022-12-25T02:01:57.856Z,7.00
2022-12-25T02:04:38.515Z,6.80
2022-12-25T02:07:18.204Z,7.90
2022-12-25T02:09:45.084Z,8.20
2022-12-25T02:12:28.782Z,8.10
2022-12-25T02:15:04.617Z,7.20
2022-12-25T02:18:21.504Z,7.90
2022-12-25T02:20:55.354Z,6.00
2022-12-25T02:24:15.444Z,7.80
2022-12-25T02:27:06.069Z,6.70
2022-12-25T02:30:06.980Z,6.70
2022-12-25T02:32:44.519Z,6.50
2022-12-25T02:35:25.159Z,7.60
2022-12-25T02:37:52.394Z,8.40
2022-12-25T02:40:39.034Z,9.10
2022-12-25T02:43:31.197Z,7.80
2022-12-25T02:46:24.476Z,7.10
2022-12-25T02:49:22.823Z,7.50
2022-12-25T02:52:14.348Z,8.20
2022-12-25T02:55:06.039Z,8.10
2022-12-25T02:57:55.523Z,7.60
2022-12-25T03:00:41.199Z,7.90
2022-12-25T03:03:27.590Z,8.70
2022-12-25T03:06:14.558Z,9.50
2022-12-25T03:08:41.686Z,7.50
2022-12-25T03:11:29.300Z,7.80
2022-12-25T03:14:21.043Z,6.70
2022-12-25T03:16:49.804Z,8.40
2022-12-25T03:19:36.083Z,10.40
2022-12-25T03:22:21.696Z,9.10
2022-12-25T03:25:12.266Z,9.40
2022-12-25T03:27:38.822Z,10.90
2022-12-25T03:30:24.708Z,11.30
2022-12-25T03:32:57.951Z,9.30
2022-12-25T03:35:30.668Z,8.30
2022-12-25T03:38:29.024Z,9.40
2022-12-25T03:41:33.398Z,8.70
2022-12-25T03:44:44.775Z,7.10
2022-12-25T03:47:51.408Z,7.90
2022-12-25T03:50:46.584Z,8.00
2022-12-25T03:53:38.056Z,7.20
2022-12-25T03:56:23.530Z,7.90
2022-12-25T03:59:19.365Z,8.30
2022-12-25T04:02:09.421Z,8.60
2022-12-25T04:04:55.128Z,8.10
2022-12-25T04:07:40.135Z,6.40
2022-12-25T04:10:26.307Z,8.60
2022-12-25T04:13:11.392Z,7.60
2022-12-25T04:15:56.480Z,8.50
2022-12-25T04:18:42.163Z,9.10
2022-12-25T04:21:27.327Z,8.20
2022-12-25T04:24:12.361Z,7.70
2022-12-25T04:26:57.384Z,7.20
2022-12-25T04:29:45.205Z,7.10
2022-12-25T04:32:30.337Z,7.70
2022-12-25T04:35:15.308Z,8.40
2022-12-25T04:37:41.685Z,6.80
2022-12-25T04:40:08.837Z,8.60
2022-12-25T04:42:35.545Z,7.80
2022-12-25T04:45:02.147Z,7.70
2022-12-25T04:47:28.791Z,7.10
2022-12-25T04:49:55.311Z,8.50
2022-12-25T04:52:21.835Z,8.90
2022-12-25T04:54:48.315Z,7.70
2022-12-25T04:57:15.720Z,7.20
2022-12-25T04:59:42.332Z,7.20
2022-12-25T05:02:08.991Z,7.50
2022-12-25T05:04:35.581Z,7.40
2022-12-25T05:07:02.182Z,7.50
2022-12-25T05:09:28.819Z,7.30
2022-12-25T05:11:55.279Z,7.20
2022-12-25T05:14:21.679Z,7.40
2022-12-25T05:16:48.285Z,7.20
2022-12-25T05:19:14.972Z,7.60
2022-12-25T05:21:41.612Z,6.60
2022-12-25T05:24:08.109Z,7.50
2022-12-25T05:26:34.612Z,6.40
2022-12-25T05:29:01.067Z,8.50
2022-12-25T05:31:27.668Z,7.20
2022-12-25T05:33:54.312Z,6.80
2022-12-25T05:36:20.899Z,8.20
2022-12-25T05:38:47.394Z,7.20
2022-12-25T05:41:13.959Z,7.50
2022-12-25T05:43:40.467Z,6.80
2022-12-25T05:46:08.902Z,6.60
2022-12-25T05:48:36.141Z,7.50
2022-12-25T05:51:11.301Z,6.80
2022-12-25T05:53:38.091Z,7.40
2022-12-25T05:56:06.058Z,7.10
2022-12-25T05:58:33.285Z,7.30
2022-12-25T06:00:59.857Z,7.50
2022-12-25T06:03:26.566Z,4.80
2022-12-25T06:05:53.268Z,6.50
2022-12-25T06:08:19.840Z,6.90
2022-12-25T06:10:46.433Z,6.40
2022-12-25T06:13:13.054Z,7.30
2022-12-25T06:15:40.770Z,5.20
2022-12-25T06:18:07.509Z,6.90
2022-12-25T06:20:34.286Z,6.50
2022-12-25T06:23:00.926Z,7.50
2022-12-25T06:25:27.613Z,8.20
2022-12-25T06:27:54.064Z,7.90
2022-12-25T06:30:20.596Z,7.80
2022-12-25T06:32:47.261Z,7.50
2022-12-25T06:35:13.877Z,7.50
2022-12-25T06:37:40.324Z,7.00
2022-12-25T06:40:09.371Z,7.10
2022-12-25T06:42:36.043Z,7.20
2022-12-25T06:45:02.582Z,7.50
2022-12-25T06:47:29.152Z,7.80
2022-12-25T06:49:55.766Z,9.80
2022-12-25T06:52:22.310Z,10.60
2022-12-25T06:54:48.877Z,10.50
2022-12-25T06:57:15.208Z,9.70
2022-12-25T06:59:41.887Z,10.60
2022-12-25T07:02:15.793Z,11.20
2022-12-25T07:04:42.474Z,9.50
2022-12-25T07:07:09.652Z,9.10
2022-12-25T07:09:37.977Z,8.00
2022-12-25T07:12:12.585Z,9.20
2022-12-25T07:14:39.109Z,8.00
2022-12-25T07:17:06.091Z,9.40
2022-12-25T07:19:32.493Z,9.20
2022-12-25T07:21:59.060Z,8.10
2022-12-25T07:24:25.560Z,8.20
2022-12-25T07:26:52.084Z,8.40
2022-12-25T07:29:18.987Z,9.20
2022-12-25T07:31:46.193Z,8.70
2022-12-25T07:34:12.609Z,8.90
2022-12-25T07:36:39.225Z,9.60
2022-12-25T07:39:05.938Z,8.20
2022-12-25T07:41:32.404Z,7.40
2022-12-25T07:44:12.671Z,9.30
2022-12-25T07:46:39.211Z,9.70
2022-12-25T07:49:05.649Z,9.90
2022-12-25T07:51:32.362Z,9.60
2022-12-25T07:53:58.960Z,8.90
2022-12-25T07:56:25.538Z,7.70
2022-12-25T07:58:52.061Z,6.80
2022-12-25T08:01:23.819Z,7.10
2022-12-25T08:03:55.649Z,6.60
2022-12-25T08:06:26.048Z,7.90
2022-12-25T08:08:52.568Z,9.10
2022-12-25T08:11:19.065Z,12.50
2022-12-25T08:13:45.414Z,14.30
2022-12-25T08:16:12.056Z,14.00
2022-12-25T08:18:38.992Z,11.70
2022-12-25T08:21:12.036Z,10.70
2022-12-25T08:23:41.007Z,10.40
2022-12-25T08:26:19.408Z,12.40
2022-12-25T08:28:46.412Z,10.40
2022-12-25T08:31:16.753Z,9.10
2022-12-25T08:33:43.663Z,8.20
2022-12-25T08:36:10.819Z,8.90
2022-12-25T08:38:37.622Z,13.10
2022-12-25T08:41:04.312Z,14.90
2022-12-25T08:43:30.851Z,10.80
2022-12-25T08:45:57.412Z,11.20
2022-12-25T08:48:23.911Z,10.20
2022-12-25T08:50:51.163Z,8.90
2022-12-25T08:53:17.927Z,9.60
2022-12-25T08:55:44.692Z,8.50
2022-12-25T08:58:11.363Z,8.30
2022-12-25T09:00:37.995Z,10.20
2022-12-25T09:03:04.844Z,12.20
2022-12-25T09:05:35.022Z,11.60
2022-12-25T09:08:01.651Z,12.50
2022-12-25T09:10:28.603Z,12.40
2022-12-25T09:12:55.135Z,13.80
2022-12-25T09:15:21.710Z,13.00
2022-12-25T09:17:48.417Z,12.20
2022-12-25T09:20:15.067Z,12.90
2022-12-25T09:22:41.733Z,12.40
2022-12-25T09:25:08.854Z,14.20
2022-12-25T09:27:35.554Z,12.10
2022-12-25T09:30:02.185Z,11.10
2022-12-25T09:32:28.698Z,9.70
2022-12-25T09:34:55.257Z,9.10
2022-12-25T09:37:21.712Z,8.60
2022-12-25T09:39:48.290Z,9.00
2022-12-25T09:42:19.532Z,8.50
2022-12-25T09:45:16.451Z,9.90
2022-12-25T09:47:44.173Z,7.20
2022-12-25T09:50:32.441Z,9.80
2022-12-25T09:53:39.097Z,7.20
2022-12-25T09:56:12.196Z,8.80
2022-12-25T09:58:38.961Z,8.50
2022-12-25T10:01:11.755Z,7.40
2022-12-25T10:04:14.966Z,6.10
2022-12-25T10:06:50.742Z,7.50
2022-12-25T10:09:48.201Z,6.70
2022-12-25T10:12:26.663Z,7.10
2022-12-25T10:15:25.042Z,7.70
2022-12-25T10:18:12.845Z,6.00
2022-12-25T10:20:48.651Z,6.80
2022-12-25T10:23:25.525Z,7.70
2022-12-25T10:25:52.337Z,6.90
2022-12-25T10:28:39.303Z,7.00
2022-12-25T10:31:24.279Z,5.50
2022-12-25T10:33:52.092Z,6.70
2022-12-25T10:36:21.460Z,6.90
2022-12-25T10:38:48.450Z,6.90
2022-12-25T10:41:56.258Z,5.80
2022-12-25T10:44:25.784Z,6.30
2022-12-25T10:46:55.475Z,5.60
2022-12-25T10:49:24.474Z,6.50
2022-12-25T10:51:51.254Z,6.30
2022-12-25T10:54:35.068Z,6.40
2022-12-25T10:57:03.163Z,7.00
2022-12-25T10:59:34.347Z,7.50
2022-12-25T11:02:18.704Z,5.60
2022-12-25T11:04:45.466Z,6.60
2022-12-25T11:07:30.489Z,5.90
2022-12-25T11:10:35.216Z,6.30
2022-12-25T11:13:02.460Z,6.70
2022-12-25T11:15:41.921Z,7.40
2022-12-25T11:18:31.853Z,8.00
2022-12-25T11:21:01.342Z,5.60
2022-12-25T11:23:30.180Z,6.90
2022-12-25T11:26:07.850Z,6.80
2022-12-25T11:28:36.383Z,7.20
2022-12-25T11:31:20.501Z,6.80
2022-12-25T11:34:02.796Z,5.60
2022-12-25T11:36:44.346Z,7.00
2022-12-25T11:39:21.038Z,6.50
2022-12-25T11:41:47.948Z,5.20
2022-12-25T11:44:27.028Z,6.70
2022-12-25T11:46:54.558Z,6.30
2022-12-25T11:49:21.235Z,5.60
2022-12-25T11:51:51.048Z,5.90
2022-12-25T11:54:24.797Z,5.30
2022-12-25T11:56:51.559Z,5.70
2022-12-25T11:59:32.825Z,6.10
2022-12-25T12:02:25.055Z,5.70
2022-12-25T12:05:21.119Z,5.20
2022-12-25T12:07:59.772Z,5.30
2022-12-25T12:10:42.957Z,5.30
2022-12-25T12:13:32.789Z,5.50
2022-12-25T12:15:59.379Z,5.90
2022-12-25T12:18:25.978Z,6.20
2022-12-25T12:21:17.056Z,6.70
2022-12-25T12:24:17.067Z,8.00
2022-12-25T12:26:44.332Z,6.60
2022-12-25T12:29:38.940Z,7.70
2022-12-25T12:32:13.873Z,7.50
2022-12-25T12:34:41.971Z,7.30
2022-12-25T12:37:35.766Z,7.50
2022-12-25T12:40:03.147Z,7.80
2022-12-25T12:42:32.354Z,6.80
2022-12-25T12:45:08.524Z,7.60
2022-12-25T12:47:41.654Z,7.00
2022-12-25T12:50:35.269Z,7.60
2022-12-25T12:53:23.673Z,5.50
2022-12-25T12:55:50.953Z,5.70
2022-12-25T12:58:49.234Z,5.50
2022-12-25T13:01:37.331Z,5.40
2022-12-25T13:04:25.060Z,7.20
2022-12-25T13:07:13.918Z,7.10
2022-12-25T13:10:08.822Z,6.30
2022-12-25T13:12:35.406Z,7.00
2022-12-25T13:15:01.824Z,6.30
2022-12-25T13:17:28.218Z,7.80
2022-12-25T13:19:58.907Z,7.50
2022-12-25T13:22:34.322Z,8.50
2022-12-25T13:25:08.215Z,7.80
2022-12-25T13:27:34.813Z,9.00
2022-12-25T13:30:12.821Z,7.10
2022-12-25T13:32:40.138Z,8.00
2022-12-25T13:35:12.744Z,7.50
2022-12-25T13:37:39.281Z,7.80
2022-12-25T13:40:06.930Z,8.50
2022-12-25T13:42:39.223Z,8.30
2022-12-25T13:45:11.770Z,7.10
2022-12-25T13:47:54.872Z,7.80
2022-12-25T13:50:30.895Z,7.20
2022-12-25T13:53:09.653Z,6.90
2022-12-25T13:55:36.222Z,7.80
2022-12-25T13:58:04.950Z,9.40
2022-12-25T14:00:48.021Z,8.20
2022-12-25T14:03:22.851Z,7.00
2022-12-25T14:06:07.065Z,8.60
2022-12-25T14:08:33.850Z,7.70
2022-12-25T14:11:03.155Z,9.20
2022-12-25T14:13:29.961Z,8.60
2022-12-25T14:15:56.532Z,8.40
2022-12-25T14:18:24.531Z,8.80
2022-12-25T14:20:56.944Z,8.50
2022-12-25T14:23:23.420Z,9.20
2022-12-25T14:25:50.041Z,10.10
2022-12-25T14:28:26.117Z,10.80
2022-12-25T14:30:55.715Z,10.40
2022-12-25T14:33:22.901Z,9.00
2022-12-25T14:35:49.616Z,10.20
2022-12-25T14:38:26.725Z,9.40
2022-12-25T14:41:04.467Z,9.00
2022-12-25T14:43:31.287Z,9.60
2022-12-25T14:46:02.991Z,10.30
2022-12-25T14:48:31.419Z,8.90
2022-12-25T14:51:01.597Z,9.00
2022-12-25T14:53:50.401Z,8.90
2022-12-25T14:56:20.092Z,8.80
2022-12-25T14:58:50.792Z,10.60
2022-12-25T15:01:42.580Z,11.30
2022-12-25T15:04:09.208Z,10.70
2022-12-25T15:06:38.221Z,11.50
2022-12-25T15:09:12.924Z,12.70
2022-12-25T15:11:48.587Z,12.40
2022-12-25T15:14:15.106Z,13.50
2022-12-25T15:16:44.969Z,12.40
2022-12-25T15:19:23.398Z,13.90
2022-12-25T15:21:52.014Z,11.90
2022-12-25T15:24:18.527Z,13.40
2022-12-25T15:26:45.157Z,13.60
2022-12-25T15:29:11.704Z,14.30
2022-12-25T15:31:38.849Z,13.20
2022-12-25T15:34:12.333Z,13.10
2022-12-25T15:36:38.797Z,11.20
2022-12-25T15:39:05.531Z,12.70
2022-12-25T15:41:53.746Z,14.10
2022-12-25T15:44:20.629Z,12.70
2022-12-25T15:46:47.275Z,12.70
2022-12-25T15:49:14.164Z,16.30
2022-12-25T15:51:40.981Z,19.70
2022-12-25T15:54:07.647Z,18.60
2022-12-25T15:56:43.549Z,17.50
2022-12-25T15:59:11.095Z,17.90
2022-12-25T16:01:37.832Z,20.80
2022-12-25T16:04:04.374Z,22.60
2022-12-25T16:06:30.859Z,25.50
2022-12-25T16:08:57.383Z,24.90
2022-12-25T16:11:23.888Z,27.00
2022-12-25T16:13:50.527Z,24.50
2022-12-25T16:16:17.274Z,24.20
2022-12-25T16:18:47.626Z,24.90
2022-12-25T16:21:17.513Z,23.80
2022-12-25T16:23:44.416Z,25.20
2022-12-25T16:26:11.081Z,26.20
2022-12-25T16:28:37.744Z,26.40
2022-12-25T16:31:04.791Z,31.50
2022-12-25T16:33:31.493Z,31.40
2022-12-25T16:35:57.997Z,31.80
2022-12-25T16:38:24.635Z,31.00
2022-12-25T16:40:59.618Z,29.70
2022-12-25T16:43:26.542Z,28.10
2022-12-25T16:45:53.132Z,30.50
2022-12-25T16:48:19.670Z,30.00
2022-12-25T16:50:46.100Z,26.10
2022-12-25T16:53:12.716Z,26.80
2022-12-25T16:55:39.394Z,26.30
2022-12-25T16:58:06.234Z,25.50
2022-12-25T17:00:32.877Z,26.10
2022-12-25T17:03:00.181Z,24.60
2022-12-25T17:05:27.348Z,22.60
2022-12-25T17:07:53.913Z,21.30
2022-12-25T17:10:20.609Z,18.80
2022-12-25T17:12:47.120Z,19.10
2022-12-25T17:15:13.971Z,19.20
2022-12-25T17:17:41.065Z,17.60
2022-12-25T17:20:08.276Z,18.00
2022-12-25T17:22:34.896Z,17.30
2022-12-25T17:25:01.627Z,16.40
2022-12-25T17:27:28.113Z,16.20
2022-12-25T17:29:54.644Z,16.30
2022-12-25T17:32:21.265Z,17.00
2022-12-25T17:34:47.900Z,17.40
2022-12-25T17:37:14.658Z,17.20
2022-12-25T17:39:41.324Z,16.60
2022-12-25T17:42:07.882Z,17.90
2022-12-25T17:44:34.430Z,17.50
2022-12-25T17:47:01.081Z,17.50
2022-12-25T17:49:27.608Z,18.50
2022-12-25T17:51:54.333Z,18.90
2022-12-25T17:54:21.038Z,18.50
2022-12-25T17:56:48.668Z,16.90
2022-12-25T17:59:17.739Z,20.80
2022-12-25T18:01:45.140Z,21.20
2022-12-25T18:04:11.890Z,20.40
2022-12-25T18:06:38.602Z,20.20
2022-12-25T18:09:05.610Z,18.80
2022-12-25T18:11:32.415Z,17.00
2022-12-25T18:14:01.433Z,16.30
2022-12-25T18:16:29.959Z,16.10
2022-12-25T18:18:58.839Z,16.60
2022-12-25T18:21:25.624Z,15.40
2022-12-25T18:23:52.131Z,16.30
2022-12-25T18:26:18.969Z,18.10
2022-12-25T18:28:46.810Z,16.30
2022-12-25T18:31:16.509Z,17.70
2022-12-25T18:33:43.903Z,17.60
2022-12-25T18:36:11.804Z,16.20
2022-12-25T18:38:38.415Z,15.60
2022-12-25T18:41:06.332Z,17.30
2022-12-25T18:43:51.538Z,16.70
2022-12-25T18:46:21.546Z,17.40
2022-12-25T18:48:48.244Z,17.20
2022-12-25T18:51:14.933Z,16.70
2022-12-25T18:53:41.447Z,16.00
2022-12-25T18:56:11.564Z,16.30
2022-12-25T18:58:38.300Z,14.60
2022-12-25T19:01:21.503Z,15.30
2022-12-25T19:03:48.702Z,13.10
2022-12-25T19:06:17.442Z,12.70
2022-12-25T19:08:44.014Z,14.80
2022-12-25T19:11:10.479Z,13.70
2022-12-25T19:13:37.322Z,17.40
2022-12-25T19:16:04.308Z,18.60
2022-12-25T19:18:30.976Z,16.60
2022-12-25T19:21:05.115Z,16.80
2022-12-25T19:23:31.724Z,14.80
2022-12-25T19:25:58.183Z,14.50
2022-12-25T19:28:24.958Z,16.50
2022-12-25T19:30:53.349Z,15.40
2022-12-25T19:33:20.851Z,15.70
2022-12-25T19:35:48.337Z,16.40
2022-12-25T19:38:15.380Z,15.30
2022-12-25T19:40:59.370Z,15.60
2022-12-25T19:43:28.484Z,15.20
2022-12-25T19:45:55.354Z,16.40
2022-12-25T19:48:22.146Z,14.10
2022-12-25T19:50:49.268Z,14.40
2022-12-25T19:53:16.920Z,15.40
2022-12-25T19:55:44.320Z,16.20
2022-12-25T19:58:11.434Z,15.80
2022-12-25T20:00:39.689Z,15.70
2022-12-25T20:03:06.184Z,14.10
2022-12-25T20:05:32.880Z,14.60
2022-12-25T20:07:59.730Z,14.00
2022-12-25T20:10:26.323Z,13.40
2022-12-25T20:12:52.934Z,11.80
2022-12-25T20:15:20.168Z,13.70
2022-12-25T20:17:46.856Z,13.90
2022-12-25T20:20:13.580Z,13.80
2022-12-25T20:22:40.315Z,14.90
2022-12-25T20:25:09.146Z,12.30
2022-12-25T20:27:35.620Z,12.10
2022-12-25T20:30:02.289Z,14.20
2022-12-25T20:32:28.974Z,14.60
2022-12-25T20:34:55.710Z,15.10
2022-12-25T20:37:22.383Z,14.90
2022-12-25T20:39:48.807Z,15.30
2022-12-25T20:42:15.471Z,14.00
2022-12-25T20:44:42.209Z,12.80
2022-12-25T20:47:09.307Z,12.70
2022-12-25T20:49:35.716Z,12.50
2022-12-25T20:52:05.441Z,13.70
2022-12-25T20:54:32.995Z,15.30
2022-12-25T20:56:59.443Z,14.00
2022-12-25T20:59:25.903Z,13.90
2022-12-25T21:01:54.787Z,13.50
2022-12-25T21:04:21.773Z,13.70
2022-12-25T21:06:48.464Z,14.00
2022-12-25T21:09:15.206Z,13.50
2022-12-25T21:11:41.861Z,12.60
2022-12-25T21:14:08.553Z,12.50
2022-12-25T21:16:35.205Z,12.60
2022-12-25T21:19:01.803Z,13.80
2022-12-25T21:21:28.330Z,12.30
2022-12-25T21:23:56.193Z,13.90
2022-12-25T21:26:27.705Z,12.40
2022-12-25T21:28:56.624Z,11.50
2022-12-25T21:31:24.019Z,12.10
2022-12-25T21:33:50.843Z,12.90
2022-12-25T21:36:31.623Z,12.40
2022-12-25T21:39:16.485Z,14.10
2022-12-25T21:41:43.061Z,12.50
2022-12-25T21:44:09.957Z,14.60
2022-12-25T21:46:36.623Z,12.20
2022-12-25T21:49:03.316Z,12.50
2022-12-25T21:51:50.441Z,13.70
2022-12-25T21:54:19.025Z,12.30
2022-12-25T21:56:46.472Z,13.50
2022-12-25T21:59:16.225Z,14.10
2022-12-25T22:01:43.280Z,14.10
2022-12-25T22:04:10.573Z,13.70
2022-12-25T22:06:55.766Z,14.10
2022-12-25T22:09:22.563Z,14.10
2022-12-25T22:12:07.777Z,13.70
2022-12-25T22:14:53.312Z,13.70
2022-12-25T22:17:51.434Z,12.50
2022-12-25T22:20:21.991Z,12.40
2022-12-25T22:22:49.419Z,12.30
2022-12-25T22:25:16.486Z,10.20
2022-12-25T22:27:43.862Z,12.80
2022-12-25T22:30:16.555Z,12.20
2022-12-25T22:32:43.482Z,11.70
2022-12-25T22:35:11.494Z,11.60
2022-12-25T22:37:38.551Z,11.20
2022-12-25T22:40:06.134Z,10.70
2022-12-25T22:42:32.682Z,12.90
2022-12-25T22:44:59.171Z,12.50
2022-12-25T22:47:25.882Z,10.10
2022-12-25T22:49:52.594Z,12.30
2022-12-25T22:52:19.151Z,13.00
2022-12-25T22:54:45.640Z,11.80
2022-12-25T22:57:12.395Z,11.90
2022-12-25T22:59:38.952Z,12.80
2022-12-25T23:02:05.680Z,12.00
2022-12-25T23:04:32.400Z,12.10
2022-12-25T23:06:58.915Z,12.80
2022-12-25T23:09:28.259Z,10.60
2022-12-25T23:11:56.719Z,11.50
2022-12-25T23:14:39.603Z,11.30
2022-12-25T23:17:29.745Z,11.30
2022-12-25T23:20:17.599Z,12.10
2022-12-25T23:23:03.113Z,11.90
2022-12-25T23:25:48.252Z,12.70
2022-12-25T23:28:34.880Z,10.40
2022-12-25T23:31:01.739Z,9.80
2022-12-25T23:33:28.514Z,11.80
2022-12-25T23:35:54.986Z,11.30
2022-12-25T23:38:21.536Z,12.10
2022-12-25T23:40:48.019Z,10.40
2022-12-25T23:43:14.548Z,11.60
2022-12-25T23:45:41.231Z,11.40
2022-12-25T23:48:08.443Z,12.40
2022-12-25T23:50:35.113Z,11.80
2022-12-25T23:53:01.869Z,11.60
2022-12-25T23:55:28.399Z,10.00
2022-12-25T23:57:54.968Z,11.60
